Correll, Minnesota
Current Conditions -  °F | °C
As of 3:54 PM on Friday 24 Oct 2014 (Local Time) from KAQP Reporting Station
Clear Clear  
Wind Chill: 77°   Ceiling: Unl
Heat Index: 77°   Visibility: 7mi
Dew Point: 37°   Wind: 5mph
Humidity: 24%   Direction: 260°W
Pressure: 29.83"   Gusts: NA
Location:  45.23°N, 96.16°W
Report Text: KAQP 242054Z AUTO 26004KT 7SM CLR 25/03 A2983 RMK AO2
Loading
Personal Weather Stations






























Interactive Weather Map
Tropical Storm Tracking
New forecast layout! Learn more

10-Day Weather Forecast

Advertisements
Track Severe Weather on mobile